8ND0 weather

Amble-Tiger North Farms Airport
Sarles, North Dakota, United States

Public forecast

Using degrees Fahrenheit for public forecast. Weather courtesy of forecast.io.

METAR (pilot weather report)

Closest report is Rolla Municipal Airport, 23.9 nm (44.2 km) W. Retrieved 2019/07/17 03:35 UTC (0 seconds ago):

K06D 170335Z AUTO 00000KT 10SM BKN120 17/17 A2991 RMK AO2

TAF (pilot weather forecast)

Forecast is more than 12 hours old.

Closest forecast is Devils Lake Regional Airport, 47.5 nm (87.9 km) S. Retrieved 2019/07/16 00:36 UTC (1 day ago):

TAF KDVL 162335Z 1700/1724 VRB04KT P6SM BKN150 FM170600 11005KT P6SM VCSH BKN070 FM171300 11008KT P6SM OVC030 FM172000 21007KT P6SM BKN040 FM172100 24007KT P6SM VCSH BKN070 FM172300 26008KT P6SM SCT150